Time;durP1;ratioP1;P1;durP2;ratioP2;P2;SDS_P1;SDS_P2;PMS_P1;PMS_P2;Temp;Humidity;BMP_temperature;BMP_pressure;BME280_temperature;BME280_humidity;BME280_pressure;Samples;Min_cycle;Max_cycle;Signal;HPM_P1;HPM_P2
2021/12/15 00:00:42;;;;;;;23.73;15.43;;;6.00;99.90;;;;;;6147415;23;20411;-94
2021/12/15 00:03:09;;;;;;;24.93;16.67;;;6.00;99.90;;;;;;6147252;23;20449;-93
2021/12/15 00:05:35;;;;;;;24.10;16.63;;;6.10;99.90;;;;;;6148655;23;20546;-94
2021/12/15 00:08:04;;;;;;;28.23;18.23;;;6.00;99.90;;;;;;6144129;23;20400;-92
2021/12/15 00:10:34;;;;;;;30.27;18.80;;;6.00;99.90;;;;;;6145009;23;20863;-94
2021/12/15 00:12:59;;;;;;;27.50;19.60;;;6.00;99.90;;;;;;6148905;23;20416;-94
2021/12/15 00:15:27;;;;;;;29.87;19.77;;;6.00;99.90;;;;;;6149812;23;20451;-94
2021/12/15 00:17:54;;;;;;;31.50;21.70;;;6.00;99.90;;;;;;6146197;23;20168;-94
2021/12/15 00:20:20;;;;;;;30.27;20.30;;;6.00;99.90;;;;;;6144851;23;20826;-94
2021/12/15 00:22:51;;;;;;;28.10;18.50;;;6.00;99.90;;;;;;6166928;23;20395;-93
2021/12/15 00:25:19;;;;;;;33.10;20.67;;;6.00;99.90;;;;;;6148115;23;20401;-93
2021/12/15 00:27:45;;;;;;;27.73;19.47;;;6.00;99.90;;;;;;6145755;23;20403;-93
2021/12/15 00:30:11;;;;;;;31.20;20.90;;;6.00;99.90;;;;;;6152598;23;20806;-94
2021/12/15 00:32:38;;;;;;;29.27;19.93;;;5.90;99.90;;;;;;6151812;23;20226;-93
2021/12/15 00:35:06;;;;;;;35.00;21.90;;;5.90;99.90;;;;;;6146451;23;20387;-94
2021/12/15 00:37:32;;;;;;;38.50;23.17;;;5.80;99.90;;;;;;6172992;23;20796;-93
2021/12/15 00:39:58;;;;;;;38.10;23.67;;;5.70;99.90;;;;;;6145596;23;20387;-94
2021/12/15 00:42:23;;;;;;;37.20;23.00;;;5.70;99.90;;;;;;6143871;23;20170;-94
2021/12/15 00:44:49;;;;;;;40.60;25.60;;;5.70;99.90;;;;;;6143784;23;20162;-94
2021/12/15 00:47:15;;;;;;;38.63;24.50;;;5.70;99.90;;;;;;6145327;23;20219;-93
2021/12/15 00:49:41;;;;;;;44.67;26.30;;;5.80;99.90;;;;;;6143374;23;20509;-92
2021/12/15 00:52:07;;;;;;;43.20;25.40;;;5.70;99.90;;;;;;6144723;23;20637;-92
2021/12/15 00:54:34;;;;;;;44.50;25.43;;;5.80;99.90;;;;;;6146274;23;20487;-92
2021/12/15 00:57:01;;;;;;;40.83;24.97;;;5.80;99.90;;;;;;6141606;23;20871;-92
2021/12/15 00:59:27;;;;;;;41.40;25.37;;;5.80;99.90;;;;;;6144711;23;20392;-92
2021/12/15 01:01:53;;;;;;;44.23;25.63;;;5.70;99.90;;;;;;6144824;23;20875;-92
2021/12/15 01:04:21;;;;;;;50.00;27.07;;;5.70;99.90;;;;;;6144944;23;20387;-92
2021/12/15 01:06:52;;;;;;;40.93;23.57;;;5.70;99.90;;;;;;6144738;23;20408;-92
2021/12/15 01:09:24;;;;;;;38.30;24.60;;;5.70;99.90;;;;;;6144718;23;20400;-92
2021/12/15 01:19:48;;;;;;;38.27;23.10;;;5.70;99.90;;;;;;6172128;23;20398;-92
2021/12/15 01:20:14;;;;;;;38.70;22.50;;;5.80;99.90;;;;;;6171413;23;20920;-92
2021/12/15 01:22:47;;;;;;;35.93;22.43;;;5.80;99.90;;;;;;6141305;23;20415;-92
2021/12/15 01:25:34;;;;;;;35.53;20.87;;;5.80;99.90;;;;;;6145172;23;20490;-92
2021/12/15 01:28:01;;;;;;;36.80;22.63;;;5.80;99.90;;;;;;6143878;23;20477;-91
2021/12/15 01:30:29;;;;;;;34.87;21.27;;;5.90;99.90;;;;;;6142018;23;20933;-90
2021/12/15 01:32:57;;;;;;;39.47;23.60;;;5.90;99.90;;;;;;6142230;23;20406;-91
2021/12/15 01:35:24;;;;;;;47.10;26.60;;;5.80;99.90;;;;;;6140438;23;20940;-90
2021/12/15 01:37:49;;;;;;;44.97;26.20;;;5.80;99.90;;;;;;6145231;23;20408;-92
2021/12/15 01:40:38;;;;;;;48.17;26.00;;;5.70;99.90;;;;;;6143340;23;20908;-90
2021/12/15 01:43:13;;;;;;;45.53;26.50;;;5.70;99.90;;;;;;6141082;23;20478;-91
2021/12/15 01:48:23;;;;;;;43.63;24.03;;;5.70;99.90;;;;;;6169918;23;20442;-91
2021/12/15 01:50:50;;;;;;;46.50;25.50;;;5.70;99.90;;;;;;6146755;23;20781;-91
2021/12/15 01:53:17;;;;;;;41.37;23.87;;;5.70;99.90;;;;;;6147548;23;20660;-91
2021/12/15 01:55:43;;;;;;;40.60;22.80;;;5.70;99.90;;;;;;6153630;23;20435;-92
2021/12/15 01:58:09;;;;;;;41.37;23.27;;;5.70;99.90;;;;;;6152210;23;20387;-92
2021/12/15 02:00:43;;;;;;;43.23;23.97;;;5.70;99.90;;;;;;6151008;23;20395;-92
2021/12/15 02:03:09;;;;;;;44.03;23.70;;;5.70;99.90;;;;;;6153342;23;20778;-92
2021/12/15 02:05:36;;;;;;;40.50;22.93;;;5.70;99.90;;;;;;6152703;23;20450;-92
2021/12/15 02:08:04;;;;;;;40.77;23.17;;;5.70;99.90;;;;;;6148706;23;20591;-92
2021/12/15 02:10:34;;;;;;;41.23;23.30;;;5.70;99.90;;;;;;6153130;23;20392;-92
2021/12/15 02:13:04;;;;;;;43.00;23.57;;;5.70;99.90;;;;;;6152736;23;20400;-92
2021/12/15 02:15:40;;;;;;;43.10;23.40;;;5.70;99.90;;;;;;6153662;23;20518;-93
2021/12/15 02:18:10;;;;;;;41.50;23.77;;;5.70;99.90;;;;;;6149859;23;20426;-92
2021/12/15 02:20:47;;;;;;;45.47;25.50;;;5.70;99.90;;;;;;6152194;23;20399;-92
2021/12/15 02:23:47;;;;;;;43.33;23.60;;;5.70;99.90;;;;;;6150823;23;20582;-93
2021/12/15 02:26:39;;;;;;;40.90;24.20;;;5.70;99.90;;;;;;6122423;23;20442;-92
2021/12/15 02:29:18;;;;;;;42.33;22.47;;;5.70;99.90;;;;;;6148345;23;20485;-92
2021/12/15 02:34:44;;;;;;;33.83;20.77;;;5.80;99.90;;;;;;6149262;23;20423;-93
2021/12/15 02:37:20;;;;;;;35.50;21.07;;;5.80;99.90;;;;;;6149215;23;20452;-93
2021/12/15 02:39:52;;;;;;;37.23;21.40;;;5.70;99.90;;;;;;6143727;23;20514;-93
2021/12/15 02:42:19;;;;;;;31.40;18.70;;;5.70;99.90;;;;;;6147146;23;20444;-92
2021/12/15 02:44:46;;;;;;;33.33;20.03;;;5.80;99.90;;;;;;6146954;23;20408;-93
2021/12/15 02:47:14;;;;;;;35.80;21.50;;;5.80;99.90;;;;;;6146588;23;20393;-93
2021/12/15 02:49:41;;;;;;;41.63;22.67;;;5.80;99.90;;;;;;6147810;23;20401;-93
2021/12/15 02:52:07;;;;;;;31.40;19.97;;;5.80;99.90;;;;;;6146807;23;20631;-93
2021/12/15 02:54:33;;;;;;;35.20;21.03;;;5.80;99.90;;;;;;6148476;23;20404;-92
2021/12/15 02:57:05;;;;;;;34.00;20.77;;;5.80;99.90;;;;;;6150218;23;20439;-92
2021/12/15 02:59:44;;;;;;;30.23;18.67;;;5.80;99.90;;;;;;6150546;23;20968;-93
2021/12/15 03:02:37;;;;;;;29.23;17.17;;;5.90;99.90;;;;;;6150904;23;20414;-92
2021/12/15 03:05:09;;;;;;;30.73;19.90;;;5.90;99.90;;;;;;6151970;23;20782;-92
2021/12/15 03:08:07;;;;;;;29.87;18.20;;;5.90;99.90;;;;;;6150997;23;20402;-93
2021/12/15 03:16:08;;;;;;;33.80;20.03;;;5.90;99.90;;;;;;6148945;23;20463;-93
2021/12/15 03:18:34;;;;;;;30.07;18.17;;;5.90;99.90;;;;;;6148836;23;20452;-93
2021/12/15 03:21:02;;;;;;;33.30;19.57;;;5.90;99.90;;;;;;6146196;23;20394;-93
2021/12/15 03:26:43;;;;;;;27.33;17.23;;;5.80;99.90;;;;;;6151911;23;20396;-92
2021/12/15 03:37:34;;;;;;;31.13;19.37;;;5.90;99.90;;;;;;6140600;23;20863;-93
2021/12/15 03:40:05;;;;;;;32.33;19.90;;;5.90;99.90;;;;;;6140252;23;20400;-92
2021/12/15 03:42:45;;;;;;;35.60;21.30;;;5.90;99.90;;;;;;6140476;23;20400;-92
2021/12/15 03:45:16;;;;;;;33.50;19.60;;;5.80;99.90;;;;;;6137827;23;20409;-92
2021/12/15 03:47:46;;;;;;;34.87;21.03;;;5.70;99.90;;;;;;6139843;23;20400;-91
2021/12/15 03:50:15;;;;;;;30.60;19.50;;;5.80;99.90;;;;;;6139934;23;20408;-94
2021/12/15 03:52:42;;;;;;;29.33;20.10;;;5.90;99.90;;;;;;6138959;23;20427;-93
2021/12/15 03:55:10;;;;;;;35.53;21.03;;;5.90;99.90;;;;;;6140769;23;20418;-93
2021/12/15 03:57:36;;;;;;;34.40;20.80;;;5.90;99.90;;;;;;6141088;23;20409;-93
2021/12/15 04:00:05;;;;;;;32.47;20.60;;;5.90;99.90;;;;;;6142157;23;20458;-93
2021/12/15 04:02:33;;;;;;;34.60;20.63;;;5.90;99.90;;;;;;6141521;23;20403;-94
2021/12/15 04:04:58;;;;;;;40.63;23.03;;;5.90;99.90;;;;;;6138473;23;20452;-94
2021/12/15 04:07:24;;;;;;;38.50;21.00;;;5.80;99.90;;;;;;6139463;23;20409;-93
2021/12/15 04:09:51;;;;;;;35.03;21.17;;;5.80;99.90;;;;;;6139854;23;20685;-93
2021/12/15 04:12:20;;;;;;;38.43;22.57;;;5.80;99.90;;;;;;6139792;23;20744;-94
2021/12/15 04:14:54;;;;;;;31.00;19.57;;;5.80;99.90;;;;;;6140639;23;20515;-93
2021/12/15 04:17:30;;;;;;;33.07;20.80;;;5.80;99.90;;;;;;6139956;23;20412;-92
2021/12/15 04:20:02;;;;;;;31.40;19.33;;;5.90;99.90;;;;;;6140796;23;20930;-93
2021/12/15 04:22:28;;;;;;;31.70;18.87;;;6.00;99.90;;;;;;6141065;23;20753;-93
2021/12/15 04:24:55;;;;;;;38.43;21.90;;;5.90;99.90;;;;;;6145100;23;20481;-92
2021/12/15 04:27:21;;;;;;;35.67;21.70;;;5.90;99.90;;;;;;6147617;23;20728;-92
2021/12/15 04:29:49;;;;;;;35.07;20.60;;;5.80;99.90;;;;;;6144582;23;20443;-92
2021/12/15 04:32:24;;;;;;;33.63;21.13;;;5.80;99.90;;;;;;6139916;23;20168;-92
2021/12/15 04:34:50;;;;;;;33.33;20.50;;;5.80;99.90;;;;;;6141788;23;20495;-93
2021/12/15 04:37:16;;;;;;;29.60;17.50;;;5.90;99.90;;;;;;6145941;23;20448;-93
2021/12/15 04:39:42;;;;;;;24.03;16.67;;;5.90;99.90;;;;;;6148921;23;20174;-92
2021/12/15 04:42:08;;;;;;;27.67;17.07;;;5.90;99.90;;;;;;6147172;23;20550;-93
2021/12/15 04:44:34;;;;;;;7.90;5.73;;;5.80;99.90;;;;;;6148131;23;20452;-93
2021/12/15 04:47:10;;;;;;;23.40;14.97;;;5.70;99.90;;;;;;6140640;23;20400;-91
2021/12/15 04:49:50;;;;;;;18.60;13.20;;;5.70;99.90;;;;;;6138996;23;20415;-93
2021/12/15 04:52:18;;;;;;;20.93;12.20;;;5.80;99.90;;;;;;6136916;23;20405;-91
2021/12/15 04:54:44;;;;;;;24.10;13.17;;;5.80;99.90;;;;;;6138328;23;20403;-91
2021/12/15 04:57:12;;;;;;;28.53;16.40;;;5.80;99.90;;;;;;6136152;23;20924;-91
2021/12/15 04:59:39;;;;;;;29.70;18.30;;;5.80;99.90;;;;;;6146681;23;20392;-92
2021/12/15 05:02:06;;;;;;;27.27;15.97;;;5.70;99.90;;;;;;6147401;23;20408;-93
2021/12/15 05:04:32;;;;;;;28.30;16.50;;;5.80;99.90;;;;;;6148292;23;20392;-93
2021/12/15 05:06:58;;;;;;;31.67;17.60;;;5.80;99.90;;;;;;6144149;23;20952;-92
2021/12/15 05:09:24;;;;;;;26.53;17.43;;;5.80;99.90;;;;;;6144000;23;20762;-93
2021/12/15 05:11:50;;;;;;;29.40;18.13;;;5.80;99.90;;;;;;6142468;23;20450;-91
2021/12/15 05:14:18;;;;;;;32.20;16.27;;;5.80;99.90;;;;;;6140470;23;20471;-92
2021/12/15 05:16:47;;;;;;;22.80;14.10;;;5.70;99.90;;;;;;6140354;23;20449;-92
2021/12/15 05:19:13;;;;;;;17.40;11.00;;;5.70;99.90;;;;;;6138998;23;20396;-91
2021/12/15 05:21:39;;;;;;;13.20;9.33;;;5.60;99.90;;;;;;6138241;23;20938;-92
2021/12/15 05:24:14;;;;;;;11.30;8.73;;;5.70;99.90;;;;;;6146128;23;20400;-91
2021/12/15 05:26:40;;;;;;;9.90;8.87;;;5.80;99.90;;;;;;6144348;23;20175;-91
2021/12/15 05:29:06;;;;;;;11.73;8.97;;;5.80;99.90;;;;;;6146931;23;20552;-92
2021/12/15 05:31:32;;;;;;;12.13;9.20;;;5.80;99.90;;;;;;6148317;23;20434;-93
2021/12/15 05:33:58;;;;;;;11.30;8.90;;;5.80;99.90;;;;;;6146602;23;20396;-93
2021/12/15 05:36:24;;;;;;;18.90;12.37;;;5.80;99.90;;;;;;6150975;23;20906;-91
2021/12/15 05:38:50;;;;;;;19.13;13.53;;;5.80;99.90;;;;;;6147482;23;20487;-92
2021/12/15 05:41:15;;;;;;;18.60;12.77;;;5.80;99.90;;;;;;6150555;23;20188;-93
2021/12/15 05:43:42;;;;;;;19.23;12.40;;;5.90;99.90;;;;;;6155565;23;20184;-93
2021/12/15 05:46:08;;;;;;;16.63;11.33;;;5.80;99.90;;;;;;6153381;23;20156;-93
2021/12/15 05:48:34;;;;;;;13.83;10.67;;;5.80;99.90;;;;;;6146310;23;20394;-92
2021/12/15 05:50:59;;;;;;;15.63;10.83;;;5.80;99.90;;;;;;6145481;23;20180;-93
2021/12/15 05:53:28;;;;;;;15.60;12.03;;;5.80;99.90;;;;;;6149782;23;20152;-94
2021/12/15 05:55:55;;;;;;;17.50;12.20;;;6.00;99.90;;;;;;6170349;23;20502;-95
2021/12/15 05:58:21;;;;;;;17.77;12.90;;;5.90;99.90;;;;;;6147261;23;20870;-95
2021/12/15 06:00:48;;;;;;;19.50;13.27;;;5.90;99.90;;;;;;6147145;23;20626;-95
2021/12/15 06:03:15;;;;;;;21.43;14.23;;;5.80;99.90;;;;;;6147442;23;20400;-94
2021/12/15 06:05:40;;;;;;;22.97;14.63;;;5.80;99.90;;;;;;6147951;23;20399;-95
2021/12/15 06:08:09;;;;;;;21.73;14.90;;;5.80;99.90;;;;;;6173299;23;20866;-94
2021/12/15 06:10:41;;;;;;;22.87;14.23;;;5.80;99.90;;;;;;6147665;23;20442;-94
2021/12/15 06:13:08;;;;;;;22.60;14.47;;;5.80;99.90;;;;;;6146685;23;20475;-95
2021/12/15 06:15:35;;;;;;;24.33;15.80;;;5.80;99.90;;;;;;6146793;23;20440;-92
2021/12/15 06:18:05;;;;;;;25.13;14.77;;;5.70;99.90;;;;;;6138438;23;20399;-92
2021/12/15 06:20:32;;;;;;;19.03;12.50;;;5.80;99.90;;;;;;6144671;23;20391;-91
2021/12/15 06:23:00;;;;;;;20.20;13.37;;;5.80;99.90;;;;;;6141496;23;20411;-92
2021/12/15 06:25:28;;;;;;;19.13;10.97;;;5.80;99.90;;;;;;6140839;23;20475;-88
2021/12/15 06:27:53;;;;;;;14.63;10.30;;;5.90;99.90;;;;;;6138068;23;20451;-90
2021/12/15 06:30:21;;;;;;;13.40;10.17;;;6.00;99.90;;;;;;6139133;23;20405;-90
2021/12/15 06:32:47;;;;;;;14.20;9.30;;;6.00;99.90;;;;;;6140139;23;20165;-89
2021/12/15 06:35:13;;;;;;;13.10;8.60;;;6.00;99.90;;;;;;6138274;23;20397;-88
2021/12/15 06:37:38;;;;;;;10.17;7.83;;;6.00;99.90;;;;;;6140952;23;20576;-88
2021/12/15 06:40:08;;;;;;;12.10;8.50;;;6.00;99.90;;;;;;6139689;23;20180;-89
2021/12/15 06:42:38;;;;;;;25.63;22.73;;;6.00;99.90;;;;;;6136813;23;20191;-91
2021/12/15 06:45:05;;;;;;;25.97;20.10;;;6.00;99.90;;;;;;6140090;23;20883;-90
2021/12/15 06:58:24;;;;;;;7.73;5.30;;;5.70;99.90;;;;;;6146035;23;20931;-88
2021/12/15 07:00:54;;;;;;;7.10;5.47;;;5.70;99.90;;;;;;6144944;23;20408;-89
2021/12/15 07:03:21;;;;;;;7.47;5.37;;;5.80;99.90;;;;;;6145553;23;20155;-89
2021/12/15 07:09:18;;;;;;;;;;;;;;;;;;;;;
2021/12/15 07:21:28;;;;;;;11.17;6.70;;;5.60;99.90;;;;;;6115270;23;20401;-89
2021/12/15 07:23:54;;;;;;;9.27;6.03;;;5.60;99.90;;;;;;6145426;23;21025;-90
2021/12/15 07:26:20;;;;;;;7.33;5.67;;;5.60;99.90;;;;;;6147615;23;20872;-89
2021/12/15 07:28:46;;;;;;;7.60;5.30;;;5.60;99.90;;;;;;6144938;23;20715;-89
2021/12/15 07:31:14;;;;;;;8.10;6.57;;;5.70;99.90;;;;;;6147360;23;20401;-89
2021/12/15 07:33:40;;;;;;;6.97;4.90;;;5.70;99.90;;;;;;6145533;23;20296;-88
2021/12/15 07:36:06;;;;;;;7.27;5.03;;;5.70;99.90;;;;;;6146793;23;20490;-89
2021/12/15 07:38:41;;;;;;;6.37;4.77;;;5.60;99.90;;;;;;6146454;23;20747;-89
2021/12/15 07:41:22;;;;;;;6.50;4.73;;;5.70;99.90;;;;;;6147307;23;20483;-90
2021/12/15 07:44:09;;;;;;;6.40;4.87;;;5.80;99.90;;;;;;6146155;23;20389;-89
2021/12/15 07:46:43;;;;;;;4.63;3.73;;;5.90;99.90;;;;;;6146185;23;20400;-89
2021/12/15 07:49:12;;;;;;;5.63;4.30;;;5.90;99.90;;;;;;6145374;23;20422;-89
2021/12/15 07:52:04;;;;;;;5.97;4.20;;;5.90;99.90;;;;;;6144396;23;20488;-88
2021/12/15 07:54:32;;;;;;;7.30;5.57;;;5.90;99.90;;;;;;6143199;23;20453;-92
2021/12/15 07:57:00;;;;;;;7.07;4.20;;;5.90;99.90;;;;;;6139213;23;20752;-91
2021/12/15 07:59:26;;;;;;;5.90;5.30;;;5.90;99.90;;;;;;6140965;23;20389;-94
2021/12/15 08:04:57;;;;;;;6.70;4.43;;;5.80;99.90;;;;;;6130567;23;20651;-91
2021/12/15 08:07:28;;;;;;;6.17;4.57;;;5.70;99.90;;;;;;6136493;23;20401;-92
2021/12/15 08:09:56;;;;;;;6.43;4.67;;;5.70;99.90;;;;;;6138403;23;20580;-91
2021/12/15 08:12:22;;;;;;;6.27;5.20;;;5.60;99.90;;;;;;6137493;23;20401;-92
2021/12/15 08:15:06;;;;;;;;;;;;;;;;;;;;;
2021/12/15 08:17:32;;;;;;;5.23;4.33;;;5.60;99.90;;;;;;6141903;23;20487;-92
2021/12/15 08:19:57;;;;;;;6.10;4.40;;;5.60;99.90;;;;;;6137956;23;20428;-92
2021/12/15 08:22:24;;;;;;;5.60;4.60;;;5.60;99.90;;;;;;6139986;23;20510;-92
2021/12/15 08:24:50;;;;;;;5.70;3.90;;;5.70;99.90;;;;;;6139448;23;20532;-92
2021/12/15 08:27:17;;;;;;;5.00;4.50;;;5.80;99.90;;;;;;6137464;23;20750;-91
2021/12/15 08:30:19;;;;;;;4.90;3.70;;;5.80;99.90;;;;;;6140726;23;20545;-93
2021/12/15 08:32:59;;;;;;;4.80;4.30;;;5.80;99.90;;;;;;6139766;23;20392;-93
2021/12/15 08:35:38;;;;;;;3.80;3.30;;;5.70;99.90;;;;;;6115272;23;20795;-92
2021/12/15 08:41:31;;;;;;;4.00;3.60;;;6.00;99.90;;;;;;6100228;23;20420;-90
2021/12/15 08:44:00;;;;;;;4.97;3.33;;;5.90;99.90;;;;;;6138829;23;20397;-91
2021/12/15 08:46:32;;;;;;;3.83;3.43;;;6.00;99.90;;;;;;6139723;23;20384;-90
2021/12/15 08:48:59;;;;;;;4.37;3.23;;;6.10;99.90;;;;;;6140675;23;21286;-92
2021/12/15 08:51:28;;;;;;;5.27;3.30;;;6.00;99.90;;;;;;6137962;23;20428;-91
2021/12/15 08:53:57;;;;;;;3.90;3.30;;;5.80;99.90;;;;;;6115163;23;20408;-92
2021/12/15 08:56:32;;;;;;;3.37;2.97;;;5.80;99.90;;;;;;6139671;23;20439;-93
2021/12/15 08:58:58;;;;;;;5.70;4.23;;;5.80;99.90;;;;;;6115378;23;20408;-92
2021/12/15 09:01:26;;;;;;;3.87;3.47;;;5.80;99.90;;;;;;6145967;23;20399;-92
2021/12/15 09:03:56;;;;;;;25.17;21.80;;;5.90;99.90;;;;;;6144983;23;20868;-93
2021/12/15 09:06:32;;;;;;;11.33;8.80;;;6.00;99.90;;;;;;6123512;23;20535;-94
2021/12/15 09:08:58;;;;;;;3.30;2.80;;;6.00;99.90;;;;;;6144083;23;20836;-94
2021/12/15 09:20:57;;;;;;;4.40;3.40;;;6.00;99.90;;;;;;6195407;23;20714;-93
2021/12/15 09:23:29;;;;;;;3.00;2.67;;;6.00;99.90;;;;;;6176949;23;20404;-93
2021/12/15 09:30:11;;;;;;;;;;;;;;;;;;;;;
2021/12/15 09:36:05;;;;;;;5.27;3.40;;;6.00;99.90;;;;;;6175494;23;20434;-92
2021/12/15 09:38:33;;;;;;;5.00;3.70;;;6.00;99.90;;;;;;6175262;23;20638;-95
2021/12/15 09:41:02;;;;;;;3.40;2.80;;;6.00;99.90;;;;;;6176646;23;20452;-93
2021/12/15 09:43:42;;;;;;;;;;;;;;;;;;;;;
2021/12/15 10:19:40;;;;;;;6.13;4.70;;;6.30;99.90;;;;;;6209527;23;20435;-94
2021/12/15 10:22:40;;;;;;;7.07;3.67;;;6.40;99.90;;;;;;6208852;23;20392;-93
2021/12/15 10:25:21;;;;;;;8.33;5.30;;;6.40;99.90;;;;;;6182626;23;20796;-94
2021/12/15 10:30:34;;;;;;;6.43;4.80;;;6.30;99.90;;;;;;6207022;23;20429;-89
2021/12/15 10:33:08;;;;;;;8.40;6.27;;;6.30;99.90;;;;;;6180509;23;20414;-89
2021/12/15 10:35:36;;;;;;;8.77;5.50;;;6.20;99.90;;;;;;6181387;23;20266;-90
2021/12/15 10:38:27;;;;;;;9.67;6.10;;;6.10;99.90;;;;;;6180384;23;20403;-91
2021/12/15 10:41:28;;;;;;;9.13;5.30;;;6.10;99.90;;;;;;6181437;23;20402;-88
2021/12/15 10:43:57;;;;;;;8.27;5.40;;;6.00;99.90;;;;;;6177924;23;20706;-89
2021/12/15 10:46:25;;;;;;;8.27;6.50;;;6.10;99.90;;;;;;6179639;23;20441;-91
2021/12/15 10:52:06;;;;;;;7.10;6.10;;;6.10;99.90;;;;;;6188929;23;20399;-90
2021/12/15 10:54:37;;;;;;;6.83;5.87;;;6.30;99.90;;;;;;6177393;23;20618;-89
2021/12/15 10:57:13;;;;;;;7.93;5.97;;;6.30;99.90;;;;;;6177364;23;20476;-90
2021/12/15 10:59:46;;;;;;;6.90;5.57;;;6.20;99.90;;;;;;6167034;23;20490;-89
2021/12/15 11:02:20;;;;;;;6.40;5.10;;;6.20;99.90;;;;;;6163438;23;20387;-89
2021/12/15 11:08:22;;;;;;;8.17;6.07;;;6.10;99.90;;;;;;6177196;23;20398;-90
2021/12/15 11:10:50;;;;;;;5.83;4.93;;;6.10;99.90;;;;;;6168958;23;20396;-88
2021/12/15 11:13:16;;;;;;;6.97;5.90;;;6.10;99.90;;;;;;6167858;23;20391;-89
2021/12/15 11:15:45;;;;;;;6.07;5.20;;;6.00;99.90;;;;;;6117845;23;20466;-89
2021/12/15 11:18:21;;;;;;;7.07;5.57;;;6.00;99.90;;;;;;6168278;23;20414;-89
2021/12/15 11:20:55;;;;;;;6.57;5.30;;;6.10;99.90;;;;;;6172406;23;20425;-89
2021/12/15 11:23:22;;;;;;;7.07;6.20;;;6.10;99.90;;;;;;6168433;23;20426;-89
2021/12/15 11:25:53;;;;;;;7.33;6.13;;;6.10;99.90;;;;;;6169398;23;20407;-89
2021/12/15 11:28:41;;;;;;;8.60;5.50;;;6.20;99.90;;;;;;6193951;23;20391;-89
2021/12/15 11:31:24;;;;;;;6.50;5.63;;;6.30;99.90;;;;;;6164439;23;20442;-90
2021/12/15 11:34:00;;;;;;;4.97;4.37;;;6.40;99.90;;;;;;6169827;23;20395;-89
2021/12/15 11:36:42;;;;;;;5.20;4.40;;;6.50;99.90;;;;;;6191632;23;20440;-89
2021/12/15 11:39:24;;;;;;;7.03;4.83;;;6.50;99.90;;;;;;6203700;23;20391;-89
2021/12/15 11:42:20;;;;;;;5.30;4.70;;;6.50;99.90;;;;;;6198690;23;20412;-89
2021/12/15 11:48:21;;;;;;;6.50;5.73;;;6.40;99.90;;;;;;6179921;23;21068;-89
2021/12/15 11:50:50;;;;;;;7.10;5.70;;;6.40;99.90;;;;;;6165725;23;20410;-88
2021/12/15 11:53:32;;;;;;;5.97;5.27;;;6.40;99.90;;;;;;6155799;23;20782;-89
2021/12/15 11:56:11;;;;;;;6.60;5.57;;;6.40;99.90;;;;;;6165943;23;20430;-89
2021/12/15 11:58:37;;;;;;;6.00;5.40;;;6.30;99.90;;;;;;6140832;23;20502;-89
2021/12/15 12:01:04;;;;;;;6.27;5.07;;;6.30;99.90;;;;;;6166430;23;20546;-89
2021/12/15 12:03:31;;;;;;;6.27;5.57;;;6.40;99.90;;;;;;6165452;23;20202;-89
2021/12/15 12:06:07;;;;;;;6.17;5.57;;;6.50;99.90;;;;;;6186620;23;20386;-89
2021/12/15 12:08:33;;;;;;;6.97;6.27;;;6.50;99.90;;;;;;6162497;23;20428;-89
2021/12/15 12:11:06;;;;;;;6.60;5.83;;;6.60;99.90;;;;;;6168076;23;20860;-90
2021/12/15 12:13:38;;;;;;;6.57;4.50;;;6.70;99.90;;;;;;6145197;23;20604;-89
2021/12/15 12:16:07;;;;;;;5.67;4.73;;;6.80;99.90;;;;;;6167778;23;20920;-89
2021/12/15 12:18:34;;;;;;;5.10;4.60;;;6.80;99.90;;;;;;6166620;23;21112;-89
2021/12/15 12:21:07;;;;;;;5.60;4.97;;;6.70;99.90;;;;;;6167085;23;20401;-89
2021/12/15 12:23:36;;;;;;;5.87;5.17;;;6.60;99.90;;;;;;6167536;23;20400;-89
2021/12/15 12:26:09;;;;;;;5.70;4.50;;;6.50;99.90;;;;;;6166970;23;20826;-89
2021/12/15 12:28:40;;;;;;;5.30;4.80;;;6.50;99.90;;;;;;6142231;23;20886;-89
2021/12/15 12:31:18;;;;;;;5.93;5.23;;;6.40;99.90;;;;;;6160328;23;20402;-89
2021/12/15 12:33:44;;;;;;;5.73;4.60;;;6.50;99.90;;;;;;6138359;23;20742;-89
2021/12/15 12:36:32;;;;;;;6.90;4.97;;;6.60;99.90;;;;;;6166640;23;20438;-89
2021/12/15 12:39:07;;;;;;;6.17;4.60;;;6.50;99.90;;;;;;6163037;23;20506;-90
2021/12/15 12:41:40;;;;;;;5.20;4.60;;;6.50;99.90;;;;;;6163494;23;20468;-88
2021/12/15 12:44:23;;;;;;;5.03;4.53;;;6.40;99.90;;;;;;6167501;23;20437;-89
2021/12/15 12:46:59;;;;;;;6.17;4.80;;;6.50;99.90;;;;;;6166445;23;20872;-88
2021/12/15 12:49:55;;;;;;;5.47;4.90;;;6.50;99.90;;;;;;6164147;23;20406;-89
2021/12/15 13:01:05;;;;;;;7.20;5.53;;;6.40;99.90;;;;;;6196095;23;20383;-89
2021/12/15 13:03:54;;;;;;;8.33;5.47;;;6.50;99.90;;;;;;6161017;23;20402;-89
2021/12/15 13:06:37;;;;;;;4.63;4.23;;;6.50;99.90;;;;;;6164598;23;20426;-88
2021/12/15 13:09:16;;;;;;;6.47;4.97;;;6.40;99.90;;;;;;6168364;23;20403;-89
2021/12/15 13:11:47;;;;;;;7.30;5.77;;;6.30;99.90;;;;;;6144698;23;20408;-88
2021/12/15 13:14:26;;;;;;;6.40;5.50;;;6.30;99.90;;;;;;6168698;23;20405;-88
2021/12/15 13:16:58;;;;;;;5.30;4.77;;;6.30;99.90;;;;;;6191446;23;20442;-89
2021/12/15 13:19:32;;;;;;;5.00;4.43;;;6.40;99.90;;;;;;6194059;23;20960;-88
2021/12/15 13:31:08;;;;;;;6.80;5.83;;;6.10;99.90;;;;;;6194679;23;20392;-89
2021/12/15 13:33:38;;;;;;;5.33;4.83;;;6.10;99.90;;;;;;6169166;23;20853;-89
2021/12/15 13:36:14;;;;;;;5.47;4.80;;;6.10;99.90;;;;;;6165744;23;20757;-89
2021/12/15 13:38:49;;;;;;;5.00;4.37;;;6.10;99.90;;;;;;6169963;23;20452;-89
2021/12/15 13:41:26;;;;;;;4.90;4.43;;;6.10;99.90;;;;;;6170511;23;20491;-88
2021/12/15 13:44:11;;;;;;;5.70;4.33;;;6.20;99.90;;;;;;6169356;23;20921;-88
2021/12/15 13:46:47;;;;;;;5.83;5.20;;;6.20;99.90;;;;;;6167160;23;20491;-89
2021/12/15 13:49:19;;;;;;;4.90;4.37;;;6.20;99.90;;;;;;6166337;23;20405;-89
2021/12/15 13:51:57;;;;;;;4.57;4.07;;;6.20;99.90;;;;;;6167285;23;20402;-87
2021/12/15 13:54:50;;;;;;;5.43;4.93;;;6.20;99.90;;;;;;6180747;23;20395;-92
2021/12/15 13:57:48;;;;;;;5.67;5.07;;;6.10;99.90;;;;;;6144088;23;20454;-91
2021/12/15 14:00:46;;;;;;;4.37;3.97;;;6.10;99.90;;;;;;6164899;23;20410;-90
2021/12/15 14:03:19;;;;;;;4.63;4.23;;;6.10;99.90;;;;;;6146750;23;20415;-92
2021/12/15 14:05:48;;;;;;;3.90;3.53;;;6.10;99.90;;;;;;6168193;23;20422;-91
2021/12/15 14:08:36;;;;;;;;;;;;;;;;;;;;;
2021/12/15 14:11:17;;;;;;;;;;;;;;;;;;;;;
2021/12/15 14:13:53;;;;;;;4.73;4.23;;;6.10;99.90;;;;;;6193936;23;20381;-91
2021/12/15 14:16:48;;;;;;;4.60;4.20;;;6.10;99.90;;;;;;6169015;23;20852;-92
2021/12/15 14:19:28;;;;;;;;;;;;;;;;;;;;;
2021/12/15 14:22:27;;;;;;;4.53;4.10;;;6.10;99.90;;;;;;6220315;23;20403;-92
2021/12/15 14:25:00;;;;;;;4.80;4.30;;;6.10;99.90;;;;;;6128785;23;20401;-92
2021/12/15 14:27:50;;;;;;;4.40;4.00;;;6.00;99.90;;;;;;6179452;23;20866;-92
2021/12/15 14:30:42;;;;;;;;;;;;;;;;;;;;;
2021/12/15 14:33:33;;;;;;;5.00;4.43;;;6.20;99.90;;;;;;6195160;23;20492;-92
2021/12/15 14:36:24;;;;;;;;;;;;;;;;;;;;;
2021/12/15 14:39:39;;;;;;;;;;;;;;;;;;;;;
2021/12/15 14:42:11;;;;;;;4.60;4.13;;;6.10;99.90;;;;;;6193778;23;20395;-92
2021/12/15 14:44:43;;;;;;;5.10;4.60;;;6.10;99.90;;;;;;6168638;23;20452;-92
2021/12/15 14:47:12;;;;;;;4.70;4.20;;;6.10;99.90;;;;;;6166682;23;20919;-92
2021/12/15 14:50:11;;;;;;;5.03;4.30;;;6.10;99.90;;;;;;6169070;23;20471;-92
2021/12/15 14:52:45;;;;;;;5.77;4.73;;;6.10;99.90;;;;;;6125429;23;20423;-92
2021/12/15 14:55:27;;;;;;;5.50;4.03;;;6.10;99.90;;;;;;6174248;23;20422;-91
2021/12/15 14:58:26;;;;;;;;;;;;;;;;;;;;;
2021/12/15 15:00:59;;;;;;;4.40;4.00;;;6.00;99.90;;;;;;6187840;23;20400;-91
2021/12/15 15:03:25;;;;;;;4.53;3.70;;;6.00;99.90;;;;;;6166275;23;20432;-91
2021/12/15 15:05:51;;;;;;;5.97;4.10;;;5.90;99.90;;;;;;6166508;23;20934;-91
2021/12/15 15:08:21;;;;;;;4.97;4.57;;;5.90;99.90;;;;;;6171795;23;20175;-91
2021/12/15 15:10:47;;;;;;;4.50;4.00;;;6.00;99.90;;;;;;6168353;23;20173;-92
2021/12/15 15:13:21;;;;;;;4.60;4.07;;;6.10;99.90;;;;;;6168609;23;20398;-92
2021/12/15 15:15:50;;;;;;;6.90;3.80;;;6.00;99.90;;;;;;6167599;23;20783;-92
2021/12/15 15:20:47;;;;;;;5.70;4.73;;;6.30;99.90;;;;;;6193433;23;20801;-92
2021/12/15 15:23:19;;;;;;;5.00;4.03;;;6.30;99.90;;;;;;6172315;23;20406;-91
2021/12/15 15:25:49;;;;;;;5.10;4.57;;;6.10;99.90;;;;;;6167274;23;20487;-91
2021/12/15 15:28:29;;;;;;;5.10;4.20;;;6.00;99.90;;;;;;6169854;23;20406;-91
2021/12/15 15:30:58;;;;;;;4.60;4.20;;;6.00;99.90;;;;;;6163760;23;20403;-91
2021/12/15 15:33:28;;;;;;;4.77;4.23;;;5.90;99.90;;;;;;6173817;23;20400;-88
2021/12/15 15:36:10;;;;;;;5.40;4.50;;;5.90;99.90;;;;;;6176352;23;20818;-87
2021/12/15 15:38:40;;;;;;;4.50;4.10;;;6.00;99.90;;;;;;6171056;23;20588;-89
2021/12/15 15:41:22;;;;;;;5.33;4.20;;;6.30;99.90;;;;;;6165808;23;20405;-88
2021/12/15 15:43:57;;;;;;;5.70;4.20;;;6.30;99.90;;;;;;6162880;23;20403;-88
2021/12/15 15:46:31;;;;;;;3.97;3.67;;;6.20;99.90;;;;;;6164728;23;20419;-85
2021/12/15 15:48:58;;;;;;;4.70;4.13;;;6.10;99.90;;;;;;6166357;23;20411;-87